»·PEaware :: N11204 KYKM-0S9

N11204 :: KYKM-0S9

FLIGHT INFORMATION

Flight Status: Arrived
Operator: Privately registered:
United States
More flights under this callsign
Pilot: Thomas C. (10835)
Aircraft: CESSNA 150 COMMUTER AEROBAT
(C150)
More flights by this aircraft type
Origin: KYKM Yakima Air Term/Mcallister
United States
Destination: 0S9 Jefferson Co Intl
United States
More flights between these airports :: More routes between these airports
Route:
File this flight plan on PilotEdge
Remarks:
Altitude:
(Current/Filed)
0ft
Speed:
(Current/Filed)
0kts
Departed: 05-Dec-20 08:44 AM
Arrived: 05-Dec-20 10:14 AM
Distance/Time
Traveled:
128nm/1:30
Distance/Time
To Go:
Arrived

Flight Plot

Page will automatically refresh every two minutes.

Flight plan parsing failed; only flown route is shown


Map Options




Map Legend


Flown Route
Filed Route
Departure Airport
Arrival Airport
Navaid (VOR, NDB)
Fix

Horizontal Profiles

Position Reports

Time Latitude Longitude Heading Altitude Ground
Speed
05-Dec-20 08:42 46.582230 -120.568007 15 2371ft 78kts
05-Dec-20 08:43 46.602746 -120.559612 18 3300ft 76kts
05-Dec-20 08:44 46.623140 -120.549919 18 4157ft 77kts
05-Dec-20 08:45 46.646647 -120.539252 18 4527ft 93kts
05-Dec-20 08:46 46.674175 -120.526771 18 4463ft 101kts
05-Dec-20 08:47 46.698466 -120.517213 19 4392ft 113kts
05-Dec-20 08:48 46.730738 -120.508227 18 4488ft 113kts
05-Dec-20 08:49 46.763156 -120.499066 18 4502ft 115kts
05-Dec-20 08:50 46.796046 -120.489713 18 4500ft 116kts
05-Dec-20 08:51 46.829748 -120.480103 18 4479ft 117kts
05-Dec-20 08:52 46.862779 -120.470646 18 4457ft 117kts
05-Dec-20 08:53 46.895210 -120.461371 17 4434ft 117kts
05-Dec-20 08:54 46.928446 -120.472179 345 4431ft 123kts
05-Dec-20 08:55 46.959658 -120.492769 335 4424ft 123kts
05-Dec-20 08:56 46.987095 -120.524770 320 4410ft 124kts
05-Dec-20 08:57 47.013090 -120.557876 316 4422ft 123kts
05-Dec-20 08:58 47.038650 -120.592531 309 4447ft 122kts
05-Dec-20 08:59 47.062300 -120.630752 310 4478ft 123kts
05-Dec-20 09:00 47.086389 -120.669681 310 4476ft 123kts
05-Dec-20 09:01 47.110211 -120.708213 310 4443ft 124kts
05-Dec-20 09:02 47.133239 -120.748066 300 4422ft 121kts
05-Dec-20 09:03 47.149642 -120.792576 290 4432ft 119kts
05-Dec-20 09:04 47.162037 -120.838569 283 4445ft 118kts
05-Dec-20 09:05 47.174313 -120.884471 291 4458ft 120kts
05-Dec-20 09:06 47.187719 -120.930054 283 4472ft 119kts
05-Dec-20 09:07 47.195125 -120.977764 271 4486ft 116kts
05-Dec-20 09:08 47.200169 -121.027464 276 4395ft 121kts
05-Dec-20 09:09 47.211348 -121.080614 286 3653ft 132kts
05-Dec-20 09:10 47.225754 -121.132765 294 3073ft 124kts
05-Dec-20 09:11 47.250444 -121.174713 293 2425ft 142kts
05-Dec-20 09:12 47.270988 -121.209237 343 3205ft 107kts
05-Dec-20 09:13 47.298331 -121.232302 327 3926ft 110kts
05-Dec-20 09:14 47.316874 -121.269955 275 4557ft 108kts
05-Dec-20 09:15 47.323267 -121.322309 292 4351ft 129kts
05-Dec-20 09:16 47.349511 -121.359316 328 4397ft 122kts
05-Dec-20 09:17 47.376850 -121.392998 297 4417ft 123kts
05-Dec-20 09:18 47.393132 -121.440894 285 4400ft 124kts
05-Dec-20 09:19 47.398607 -121.492128 266 4372ft 118kts
05-Dec-20 09:20 47.406735 -121.541493 297 4334ft 125kts
05-Dec-20 09:21 47.425096 -121.586325 297 4298ft 127kts
05-Dec-20 09:22 47.440522 -121.632280 285 4274ft 122kts
05-Dec-20 09:23 47.450239 -121.680015 286 4320ft 119kts
05-Dec-20 09:24 47.472189 -121.717251 318 4400ft 122kts
05-Dec-20 09:25 47.496451 -121.752104 312 4484ft 122kts
05-Dec-20 09:26 47.518377 -121.791311 303 4467ft 124kts
05-Dec-20 09:27 47.539669 -121.830732 335 4370ft 121kts
05-Dec-20 09:28 47.570313 -121.846119 351 4446ft 114kts
05-Dec-20 09:30 47.601230 -121.858837 340 4481ft 114kts
05-Dec-20 09:31 47.630148 -121.874543 349 4374ft 106kts
05-Dec-20 09:32 47.654405 -121.884447 343 4454ft 83kts
05-Dec-20 09:33 47.675271 -121.900969 326 4567ft 91kts
05-Dec-20 09:34 47.696302 -121.921335 343 4468ft 93kts
05-Dec-20 09:35 47.720718 -121.934574 343 4460ft 93kts
05-Dec-20 09:36 47.745231 -121.946762 337 4412ft 94kts
05-Dec-20 09:37 47.768407 -121.963380 337 4417ft 91kts
05-Dec-20 09:38 47.790020 -121.983048 324 4495ft 91kts
05-Dec-20 09:39 47.812014 -122.008757 323 4763ft 107kts
05-Dec-20 09:40 47.835957 -122.035952 324 4628ft 103kts
05-Dec-20 09:41 47.858582 -122.055450 337 4630ft 88kts
05-Dec-20 09:42 47.879509 -122.071279 319 4682ft 84kts
05-Dec-20 09:43 47.895362 -122.095126 292 4793ft 80kts
05-Dec-20 09:44 47.912711 -122.118964 315 4832ft 89kts
05-Dec-20 09:45 47.932291 -122.144271 320 4779ft 95kts
05-Dec-20 09:46 47.950971 -122.171826 313 4742ft 94kts
05-Dec-20 09:47 47.967958 -122.201596 299 4702ft 93kts
05-Dec-20 09:47 47.973586 -122.231141 275 4672ft 89kts
05-Dec-20 09:49 47.982925 -122.272264 285 4658ft 89kts
05-Dec-20 09:49 47.990692 -122.300697 285 4663ft 88kts
05-Dec-20 09:51 47.998060 -122.341112 261 4658ft 84kts
05-Dec-20 09:51 48.000715 -122.370441 272 4656ft 86kts
05-Dec-20 09:52 48.005806 -122.405804 276 4627ft 89kts
05-Dec-20 09:53 48.008607 -122.441517 254 4388ft 87kts
05-Dec-20 09:54 48.009675 -122.478288 267 4072ft 90kts
05-Dec-20 09:55 48.015944 -122.515366 280 3758ft 92kts
05-Dec-20 09:56 48.019386 -122.552955 262 3439ft 89kts
05-Dec-20 09:57 48.011845 -122.583038 196 3191ft 67kts
05-Dec-20 09:58 47.998271 -122.576679 93 3235ft 68kts
05-Dec-20 09:59 48.017729 -122.570270 318 3257ft 98kts
05-Dec-20 10:00 48.019153 -122.604771 222 3285ft 77kts
05-Dec-20 10:01 48.002241 -122.618197 167 3310ft 62kts
05-Dec-20 10:02 47.992879 -122.600348 82 3298ft 73kts
05-Dec-20 10:03 48.000158 -122.571714 84 3290ft 73kts
05-Dec-20 10:04 48.020324 -122.560360 336 3232ft 99kts
05-Dec-20 10:05 48.036939 -122.591090 275 3145ft 93kts
05-Dec-20 10:06 48.035227 -122.627980 241 2981ft 88kts
05-Dec-20 10:07 48.024977 -122.661063 219 2794ft 82kts
05-Dec-20 10:08 48.014746 -122.694950 245 2521ft 92kts
05-Dec-20 10:09 48.025420 -122.736831 283 1821ft 107kts
05-Dec-20 10:10 48.035746 -122.776870 316 1293ft 97kts
05-Dec-20 10:11 48.044300 -122.808907 273 1274ft 79kts
05-Dec-20 10:12 48.056126 -122.830441 62 688ft 67kts
05-Dec-20 10:13 48.054004 -122.811908 105 110ft 28kts
05-Dec-20 10:14 48.056543 -122.809104 99 110ft 7kts
05-Dec-20 10:15 48.056706 -122.808997 291 110ft 0kts

Navigation Log

Ident Type
Flight plan parsing failed, navigation log unavailable